»·PEaware :: N520MP KPHX-KPSP

N520MP :: KPHX-KPSP

FLIGHT INFORMATION

Flight Status: Arrived
Operator: Privately registered:
United States
More flights under this callsign
Pilot: Manuel P. (9695)
Aircraft: CANADAIR CL-600 CRJ-200
(CRJ2)
More flights by this aircraft type
Origin: KPHX Phoenix Sky Harbor Intl
United States
Destination: KPSP Palm Springs Intl
United States
More flights between these airports :: More routes between these airports
Route: +IZZZO6 HRRBR CURIV J212 DECAS SBONO1
File this flight plan on PilotEdge
Remarks:
Altitude:
(Current/Filed)
30,000ft
Speed:
(Current/Filed)
400kts
Departed: 22-Aug-17 02:53 PM
Arrived: 22-Aug-17 03:34 PM
Distance/Time
Traveled:
225nm/0:41
Distance/Time
To Go:
Arrived

Flight Plot

Page will automatically refresh every two minutes.

Flight plan parsing failed; only flown route is shown


Map Options




Map Legend


Flown Route
Filed Route
Departure Airport
Arrival Airport
Navaid (VOR, NDB)
Fix

Horizontal Profiles

Position Reports

Time Latitude Longitude Heading Altitude Ground
Speed
22-Aug-17 14:37 33.426669 -112.024087 32 1139ft 0kts
22-Aug-17 14:38 33.426669 -112.024087 32 1139ft 0kts
22-Aug-17 14:39 33.426669 -112.024087 32 1139ft 0kts
22-Aug-17 14:40 33.426669 -112.024087 32 1139ft 0kts
22-Aug-17 14:41 33.426669 -112.024087 32 1139ft 0kts
22-Aug-17 14:42 33.426669 -112.024087 32 1139ft 0kts
22-Aug-17 14:43 33.426669 -112.024087 32 1139ft 0kts
22-Aug-17 14:44 33.426669 -112.024087 32 1139ft 0kts
22-Aug-17 14:45 33.426669 -112.024087 32 1139ft 0kts
22-Aug-17 14:46 33.426669 -112.024087 32 1139ft 0kts
22-Aug-17 14:47 33.426669 -112.024087 32 1139ft 0kts
22-Aug-17 14:48 33.426669 -112.024087 32 1139ft 0kts
22-Aug-17 14:49 33.426669 -112.024087 32 1139ft 0kts
22-Aug-17 14:50 33.426757 -112.024026 27 1139ft 3kts
22-Aug-17 14:51 33.427384 -112.024226 0 1139ft 5kts
22-Aug-17 14:52 33.428064 -112.021963 29 1139ft 10kts
22-Aug-17 14:53 33.429968 -112.020617 88 1139ft 13kts
22-Aug-17 14:54 33.429971 -112.015055 90 1139ft 23kts
22-Aug-17 14:55 33.429963 -112.006626 90 1139ft 25kts
22-Aug-17 14:56 33.429797 -112.001941 133 1139ft 2kts
22-Aug-17 14:57 33.428912 -112.007569 270 1139ft 94kts
22-Aug-17 14:58 33.429573 -112.070432 275 2946ft 243kts
22-Aug-17 14:59 33.433414 -112.157731 274 5794ft 277kts
22-Aug-17 15:00 33.437341 -112.252743 272 7905ft 296kts
22-Aug-17 15:01 33.440999 -112.350972 270 10258ft 303kts
22-Aug-17 15:02 33.444807 -112.454525 270 12714ft 335kts
22-Aug-17 15:03 33.449404 -112.579725 270 15444ft 418kts
22-Aug-17 15:04 33.451749 -112.720714 268 20116ft 435kts
22-Aug-17 15:05 33.464985 -112.864656 280 22089ft 443kts
22-Aug-17 15:06 33.491996 -113.009776 279 23731ft 455kts
22-Aug-17 15:07 33.519506 -113.158030 279 25226ft 458kts
22-Aug-17 15:08 33.546954 -113.307020 279 26721ft 455kts
22-Aug-17 15:09 33.573910 -113.454413 278 28208ft 451kts
22-Aug-17 15:10 33.601333 -113.602676 279 29712ft 459kts
22-Aug-17 15:11 33.629622 -113.755273 278 29948ft 489kts
22-Aug-17 15:12 33.659246 -113.915770 278 30171ft 494kts
22-Aug-17 15:13 33.688603 -114.076046 278 29937ft 491kts
22-Aug-17 15:14 33.715675 -114.224789 278 29910ft 439kts
22-Aug-17 15:15 33.741772 -114.369521 278 29917ft 449kts
22-Aug-17 15:16 33.767798 -114.514702 278 29916ft 456kts
22-Aug-17 15:17 33.780192 -114.666634 269 29918ft 463kts
22-Aug-17 15:18 33.789104 -114.821813 269 29917ft 470kts
22-Aug-17 15:19 33.797960 -114.978800 269 29916ft 472kts
22-Aug-17 15:20 33.806592 -115.135808 269 29915ft 472kts
22-Aug-17 15:21 33.814914 -115.290679 269 30013ft 460kts
22-Aug-17 15:22 33.823076 -115.445277 272 30035ft 471kts
22-Aug-17 15:23 33.856324 -115.598597 269 30086ft 474kts
22-Aug-17 15:24 33.868659 -115.745443 271 29716ft 464kts
22-Aug-17 15:25 33.899060 -115.890566 291 27102ft 447kts
22-Aug-17 15:26 33.949651 -116.023459 291 24296ft 434kts
22-Aug-17 15:27 33.996543 -116.148132 291 22839ft 405kts
22-Aug-17 15:28 34.042557 -116.272311 291 19127ft 408kts
22-Aug-17 15:29 34.087401 -116.395944 291 15349ft 400kts
22-Aug-17 15:30 34.128580 -116.510445 291 11596ft 353kts
22-Aug-17 15:31 34.118821 -116.601709 204 11125ft 249kts
22-Aug-17 15:32 34.055364 -116.581713 151 8059ft 288kts
22-Aug-17 15:33 33.987560 -116.557482 184 4294ft 246kts
22-Aug-17 15:34 33.927355 -116.561948 177 3720ft 180kts
22-Aug-17 15:35 33.885328 -116.557356 152 2344ft 152kts
22-Aug-17 15:36 33.853669 -116.529385 140 992ft 131kts
22-Aug-17 15:37 33.827484 -116.505640 141 482ft 43kts
22-Aug-17 15:38 33.825450 -116.502629 116 482ft 12kts
22-Aug-17 15:39 33.824075 -116.500555 65 482ft 5kts
22-Aug-17 15:40 33.823687 -116.498274 143 482ft 13kts
22-Aug-17 15:41 33.823284 -116.497243 324 482ft 3kts
22-Aug-17 15:42 33.823320 -116.497334 237 482ft 0kts
22-Aug-17 15:43 33.823320 -116.497334 237 482ft 0kts
22-Aug-17 15:44 33.823320 -116.497334 237 482ft 0kts
22-Aug-17 15:45 33.823320 -116.497334 237 482ft 0kts
22-Aug-17 15:46 33.823320 -116.497334 237 482ft 0kts
22-Aug-17 15:47 33.823320 -116.497334 237 482ft 0kts
22-Aug-17 15:48 33.823320 -116.497334 237 482ft 0kts
22-Aug-17 15:49 33.823320 -116.497334 237 482ft 0kts
22-Aug-17 15:50 33.823320 -116.497334 237 482ft 0kts
22-Aug-17 15:51 33.823320 -116.497334 237 482ft 0kts
22-Aug-17 15:52 33.823320 -116.497334 237 482ft 0kts

Navigation Log

Ident Type
Flight plan parsing failed, navigation log unavailable